Time;durP1;ratioP1;P1;durP2;ratioP2;P2;SDS_P1;SDS_P2;PMS_P1;PMS_P2;Temp;Humidity;BMP_temperature;BMP_pressure;BME280_temperature;BME280_humidity;BME280_pressure;Samples;Min_cycle;Max_cycle;Signal;HPM_P1;HPM_P2
2021/01/17 00:00:32;;;;;;;15.37;8.57;;;;;;;;;;5074804;28;20457;-88
2021/01/17 00:02:59;;;;;;;12.23;7.97;;;;;;;;;;5075101;28;21054;-88
2021/01/17 00:05:28;;;;;;;14.40;8.53;;;-2.10;99.90;;;;;;5074457;28;20445;-89
2021/01/17 00:07:54;;;;;;;15.17;7.90;;;;;;;;;;5074013;28;20457;-88
2021/01/17 00:10:23;;;;;;;15.03;9.43;;;-2.00;99.90;;;;;;5080548;28;20431;-89
2021/01/17 00:12:50;;;;;;;12.67;8.47;;;;;;;;;;5063124;28;20494;-89
2021/01/17 00:15:17;;;;;;;15.73;9.07;;;-2.00;99.90;;;;;;5053615;28;20457;-90
2021/01/17 00:17:45;;;;;;;15.20;8.57;;;-2.10;99.90;;;;;;5054568;28;20448;-90
2021/01/17 00:20:13;;;;;;;14.80;8.07;;;-2.00;99.90;;;;;;5073870;28;20457;-89
2021/01/17 00:22:41;;;;;;;15.00;8.40;;;-1.70;99.90;;;;;;5072436;28;20442;-89
2021/01/17 00:25:11;;;;;;;18.03;8.60;;;-2.30;99.90;;;;;;5073361;28;20437;-89
2021/01/17 00:27:38;;;;;;;14.50;7.80;;;-2.10;99.90;;;;;;5074653;28;20452;-89
2021/01/17 00:30:08;;;;;;;16.93;8.00;;;-2.20;99.90;;;;;;5073676;28;20475;-87
2021/01/17 00:32:35;;;;;;;15.00;7.90;;;;;;;;;;5054093;28;20511;-89
2021/01/17 00:35:03;;;;;;;15.00;8.53;;;-2.10;99.90;;;;;;5052816;28;20549;-89
2021/01/17 00:37:29;;;;;;;15.83;8.13;;;-1.40;99.90;;;;;;5052176;28;20461;-88
2021/01/17 00:39:56;;;;;;;11.10;6.43;;;;;;;;;;5053136;28;20459;-88
2021/01/17 00:42:23;;;;;;;15.67;8.73;;;-2.00;99.90;;;;;;5053210;28;20451;-89
2021/01/17 00:44:51;;;;;;;14.80;7.47;;;-2.10;99.90;;;;;;5053016;28;20473;-89
2021/01/17 00:47:18;;;;;;;14.67;7.80;;;;;;;;;;5053139;28;20960;-90
2021/01/17 00:49:45;;;;;;;13.47;7.97;;;;;;;;;;5053142;28;20525;-88
2021/01/17 00:52:17;;;;;;;12.40;7.60;;;-2.10;99.90;;;;;;5052080;28;20575;-88
2021/01/17 00:54:52;;;;;;;11.87;7.37;;;;;;;;;;5052778;28;20451;-87
2021/01/17 00:57:20;;;;;;;12.17;7.00;;;;;;;;;;5052883;28;20955;-90
2021/01/17 00:59:47;;;;;;;15.03;9.20;;;;;;;;;;5053103;28;20470;-89
2021/01/17 01:02:16;;;;;;;13.50;9.10;;;-2.00;99.90;;;;;;5052533;28;20497;-89
2021/01/17 01:04:43;;;;;;;12.53;7.97;;;;;;;;;;5052861;28;20454;-89
2021/01/17 01:07:09;;;;;;;12.00;7.23;;;;;;;;;;5059817;28;20448;-89
2021/01/17 01:09:36;;;;;;;13.43;7.67;;;;;;;;;;5077474;28;20456;-89
2021/01/17 01:12:02;;;;;;;13.30;8.40;;;;;;;;;;5079153;28;20962;-89
2021/01/17 01:14:29;;;;;;;13.50;8.00;;;;;;;;;;5076774;28;20455;-88
2021/01/17 01:16:56;;;;;;;14.90;7.87;;;;;;;;;;5076955;28;20484;-88
2021/01/17 01:19:23;;;;;;;14.70;7.50;;;;;;;;;;5076782;28;20446;-88
2021/01/17 01:21:50;;;;;;;14.17;8.50;;;;;;;;;;5075549;28;20485;-89
2021/01/17 01:24:17;;;;;;;13.30;8.30;;;;;;;;;;5076741;28;20461;-89
2021/01/17 01:26:45;;;;;;;14.10;8.30;;;-2.00;99.90;;;;;;5076849;28;20840;-90
2021/01/17 01:29:12;;;;;;;13.00;7.70;;;;;;;;;;5076416;28;20474;-90
2021/01/17 01:31:42;;;;;;;16.50;8.80;;;-2.00;99.90;;;;;;5078084;28;20468;-89
2021/01/17 01:34:08;;;;;;;17.80;10.20;;;-1.30;99.90;;;;;;5076661;28;20911;-90
2021/01/17 01:36:38;;;;;;;16.80;9.17;;;-2.00;99.90;;;;;;5075577;28;20921;-89
2021/01/17 01:39:06;;;;;;;17.23;9.47;;;-2.20;99.90;;;;;;5076563;28;20454;-88
2021/01/17 01:41:36;;;;;;;16.03;8.40;;;-2.10;99.90;;;;;;5076375;28;20453;-89
2021/01/17 01:44:05;;;;;;;20.03;10.73;;;-1.50;99.90;;;;;;5076279;28;20446;-90
2021/01/17 01:46:32;;;;;;;12.10;8.10;;;-1.90;99.90;;;;;;5076371;28;20669;-90
2021/01/17 01:49:00;;;;;;;17.27;9.60;;;-2.00;99.90;;;;;;5076186;28;20452;-89
2021/01/17 01:51:29;;;;;;;16.83;8.87;;;;;;;;;;5075022;28;20450;-89
2021/01/17 01:53:57;;;;;;;20.33;10.60;;;0.10;99.90;;;;;;5076237;28;20450;-90
2021/01/17 01:56:24;;;;;;;15.57;9.50;;;;;;;;;;5075876;28;20456;-90
2021/01/17 01:58:54;;;;;;;12.93;7.37;;;-1.80;99.90;;;;;;5076200;28;20450;-90
2021/01/17 02:01:21;;;;;;;16.90;9.43;;;-2.10;99.90;;;;;;5075893;28;20456;-87
2021/01/17 02:03:49;;;;;;;18.90;10.30;;;-1.90;99.90;;;;;;5075756;28;20450;-90
2021/01/17 02:06:21;;;;;;;26.43;10.00;;;-1.90;99.90;;;;;;5074485;28;20838;-86
2021/01/17 02:09:24;;;;;;;17.90;10.47;;;-1.80;99.90;;;;;;5056484;28;20488;-89
2021/01/17 02:12:13;;;;;;;17.00;8.90;;;-2.00;99.90;;;;;;5024644;28;20575;-87
2021/01/17 02:14:48;;;;;;;17.53;10.03;;;-2.00;99.90;;;;;;5055762;28;20488;-88
2021/01/17 02:17:18;;;;;;;16.47;9.67;;;-2.30;99.90;;;;;;5055904;28;20454;-89
2021/01/17 02:20:10;;;;;;;15.17;9.00;;;-2.00;99.90;;;;;;5054797;28;20493;-88
2021/01/17 02:22:44;;;;;;;18.30;10.80;;;-2.00;99.90;;;;;;5054666;28;20501;-90
2021/01/17 02:25:13;;;;;;;19.87;10.80;;;-2.00;99.90;;;;;;5055495;28;20442;-87
2021/01/17 02:27:41;;;;;;;19.50;10.40;;;-2.40;99.90;;;;;;5055750;28;20451;-87
2021/01/17 02:30:10;;;;;;;18.13;9.90;;;-2.50;99.90;;;;;;5055288;28;20476;-87
2021/01/17 02:32:46;;;;;;;17.80;10.63;;;-2.20;99.90;;;;;;5055726;28;20493;-87
2021/01/17 02:35:14;;;;;;;16.80;10.00;;;-2.30;99.90;;;;;;5055407;28;20574;-88
2021/01/17 02:37:52;;;;;;;18.23;10.37;;;-2.40;99.90;;;;;;5054429;28;20453;-86
2021/01/17 02:40:33;;;;;;;16.33;9.23;;;-2.20;99.90;;;;;;5057652;28;20483;-88
2021/01/17 02:43:01;;;;;;;13.67;8.17;;;-2.30;99.90;;;;;;5055630;28;20494;-87
2021/01/17 02:45:28;;;;;;;16.73;9.97;;;-2.30;99.90;;;;;;5055222;28;20447;-87
2021/01/17 02:47:54;;;;;;;16.40;10.40;;;-2.20;99.90;;;;;;5055477;28;20528;-88
2021/01/17 02:50:21;;;;;;;15.70;9.80;;;;;;;;;;5054972;28;20445;-87
2021/01/17 02:52:53;;;;;;;18.57;10.73;;;-2.10;99.90;;;;;;5055230;28;20457;-88
2021/01/17 02:55:21;;;;;;;17.13;9.53;;;-2.30;99.90;;;;;;5054967;28;20452;-87
2021/01/17 02:57:53;;;;;;;16.53;10.43;;;-2.20;99.90;;;;;;5054984;28;20549;-88
2021/01/17 03:00:23;;;;;;;16.40;9.77;;;-2.40;99.90;;;;;;5054952;28;20474;-87
2021/01/17 03:02:51;;;;;;;17.03;10.23;;;-2.20;99.90;;;;;;5054781;28;20494;-87
2021/01/17 03:05:21;;;;;;;19.73;10.77;;;-2.20;99.90;;;;;;5054684;28;20964;-87
2021/01/17 03:07:49;;;;;;;14.40;9.47;;;-2.00;99.90;;;;;;5065489;28;20457;-87
2021/01/17 03:10:16;;;;;;;17.20;10.80;;;;;;;;;;5074801;28;20584;-87
2021/01/17 03:12:42;;;;;;;19.07;11.13;;;;;;;;;;5074682;28;20856;-87
2021/01/17 03:15:11;;;;;;;15.97;10.10;;;-2.10;99.90;;;;;;5074968;28;20467;-88
2021/01/17 03:17:38;;;;;;;18.50;10.37;;;;;;;;;;5074887;28;20451;-87
2021/01/17 03:20:06;;;;;;;16.40;9.53;;;-2.10;99.90;;;;;;5074780;28;20449;-88
2021/01/17 03:22:32;;;;;;;17.13;10.30;;;;;;;;;;5068937;28;20503;-88
2021/01/17 03:24:59;;;;;;;15.63;9.43;;;;;;;;;;5074217;28;20457;-88
2021/01/17 03:27:26;;;;;;;20.97;10.83;;;;;;;;;;5074501;28;20451;-88
2021/01/17 03:29:52;;;;;;;18.80;10.20;;;;;;;;;;5074170;28;21010;-89
2021/01/17 03:32:19;;;;;;;16.43;10.30;;;-2.00;99.90;;;;;;5075034;28;20450;-87
2021/01/17 03:34:48;;;;;;;16.60;10.43;;;;;;;;;;5054559;28;20461;-88
2021/01/17 03:37:15;;;;;;;19.47;10.33;;;;;;;;;;5073716;28;20513;-89
2021/01/17 03:39:41;;;;;;;19.10;9.63;;;-2.20;99.90;;;;;;5075101;28;20463;-89
2021/01/17 03:42:08;;;;;;;17.70;10.67;;;-1.90;99.90;;;;;;5074100;28;20490;-88
2021/01/17 03:44:35;;;;;;;17.40;10.10;;;;;;;;;;5073976;28;20460;-88
2021/01/17 03:47:01;;;;;;;19.67;11.10;;;-2.20;99.90;;;;;;5074275;28;20453;-89
2021/01/17 03:49:29;;;;;;;15.50;9.97;;;-2.10;99.90;;;;;;5074350;28;20447;-88
2021/01/17 03:51:55;;;;;;;19.87;11.63;;;;;;;;;;5075265;28;20464;-87
2021/01/17 03:54:22;;;;;;;18.40;9.83;;;;;;;;;;5076585;28;20456;-88
2021/01/17 03:56:48;;;;;;;25.30;12.13;;;-2.40;99.90;;;;;;5073990;28;20465;-88
2021/01/17 03:59:16;;;;;;;20.73;11.37;;;;;;;;;;5073702;28;20511;-87
2021/01/17 04:01:42;;;;;;;19.57;10.20;;;;;;;;;;5073731;28;20469;-90
2021/01/17 04:04:09;;;;;;;15.93;9.97;;;-2.50;99.90;;;;;;5073525;28;20453;-89
2021/01/17 04:06:37;;;;;;;17.40;8.90;;;-2.10;99.90;;;;;;5073620;28;20535;-88
2021/01/17 04:09:03;;;;;;;17.27;10.40;;;-2.30;99.90;;;;;;5053816;28;20462;-89
2021/01/17 04:11:30;;;;;;;17.30;10.43;;;;;;;;;;5053722;28;20810;-88
2021/01/17 04:13:57;;;;;;;18.93;9.70;;;;;;;;;;5053419;28;20932;-87
2021/01/17 04:16:24;;;;;;;19.37;11.03;;;;;;;;;;5053762;28;20462;-88
2021/01/17 04:18:50;;;;;;;17.33;10.53;;;-2.20;99.90;;;;;;5053680;28;20818;-89
2021/01/17 04:21:17;;;;;;;16.20;10.63;;;;;;;;;;5052877;28;20464;-88
2021/01/17 04:23:44;;;;;;;19.43;10.23;;;-2.00;99.90;;;;;;5053588;28;20495;-89
2021/01/17 04:26:11;;;;;;;19.50;10.90;;;;;;;;;;5053738;28;20474;-90
2021/01/17 04:28:38;;;;;;;20.60;11.40;;;;;;;;;;5053430;28;20454;-89
2021/01/17 04:31:04;;;;;;;17.83;10.20;;;-2.20;99.90;;;;;;5053298;28;20441;-89
2021/01/17 04:33:31;;;;;;;19.80;10.87;;;;;;;;;;5053276;28;20953;-87
2021/01/17 04:35:58;;;;;;;20.00;11.37;;;-2.10;99.90;;;;;;5052517;28;20457;-89
2021/01/17 04:38:24;;;;;;;19.87;10.90;;;-2.20;99.90;;;;;;5054393;28;20988;-88
2021/01/17 04:40:51;;;;;;;19.20;11.43;;;-2.00;99.90;;;;;;5053293;28;20463;-89
2021/01/17 04:43:29;;;;;;;15.30;9.30;;;-2.10;99.90;;;;;;5052877;28;20496;-89
2021/01/17 04:45:59;;;;;;;16.33;9.20;;;-2.10;99.90;;;;;;5053269;28;20445;-88
2021/01/17 04:48:27;;;;;;;24.67;10.93;;;-2.00;99.90;;;;;;5053316;28;20445;-89
2021/01/17 04:50:59;;;;;;;22.23;10.27;;;-2.10;99.90;;;;;;5052480;28;20449;-90
2021/01/17 04:53:28;;;;;;;16.90;10.23;;;-2.10;99.90;;;;;;5053653;28;20458;-88
2021/01/17 04:56:12;;;;;;;19.10;10.90;;;-2.20;99.90;;;;;;5050679;28;20443;-89
2021/01/17 04:58:43;;;;;;;22.80;11.43;;;-2.10;99.90;;;;;;5053254;28;20824;-88
2021/01/17 05:01:21;;;;;;;19.50;10.63;;;-1.90;99.90;;;;;;5053316;28;20449;-88
2021/01/17 05:04:04;;;;;;;18.47;11.10;;;-1.70;99.90;;;;;;5052761;28;21066;-88
2021/01/17 05:06:37;;;;;;;19.17;12.10;;;-2.00;99.90;;;;;;5051546;28;20456;-88
2021/01/17 05:09:05;;;;;;;17.50;11.30;;;-2.00;99.90;;;;;;5052472;28;20445;-88
2021/01/17 05:11:35;;;;;;;25.83;10.90;;;-1.70;99.90;;;;;;5052516;28;20453;-88
2021/01/17 05:14:12;;;;;;;21.80;11.30;;;-2.10;99.90;;;;;;5052932;28;20449;-88
2021/01/17 05:16:41;;;;;;;20.37;11.10;;;-1.90;99.90;;;;;;5052682;28;20545;-88
2021/01/17 05:19:11;;;;;;;20.47;11.80;;;-2.10;99.90;;;;;;5052739;28;20951;-88
2021/01/17 05:21:40;;;;;;;18.57;11.07;;;-2.00;99.90;;;;;;5051466;28;20940;-87
2021/01/17 05:24:12;;;;;;;21.90;12.13;;;-1.70;99.90;;;;;;5052341;28;20460;-88
2021/01/17 05:26:42;;;;;;;20.40;12.00;;;-1.90;99.90;;;;;;5052636;28;20446;-87
2021/01/17 05:29:09;;;;;;;21.63;11.23;;;-1.70;99.90;;;;;;5052632;28;20481;-88
2021/01/17 05:31:36;;;;;;;27.00;12.67;;;-1.80;99.90;;;;;;5050278;28;20468;-87
2021/01/17 05:34:02;;;;;;;21.20;11.53;;;-1.80;99.90;;;;;;5055336;28;20489;-88
2021/01/17 05:36:32;;;;;;;22.73;11.77;;;-1.90;99.90;;;;;;5051373;28;20468;-88
2021/01/17 05:39:03;;;;;;;21.20;11.03;;;-1.90;99.90;;;;;;5052630;28;20450;-88
2021/01/17 05:41:29;;;;;;;20.80;12.03;;;-2.00;99.90;;;;;;5052661;28;20454;-88
2021/01/17 05:43:57;;;;;;;19.80;11.57;;;-1.60;99.90;;;;;;5052655;28;20503;-87
2021/01/17 05:46:23;;;;;;;20.10;11.67;;;;;;;;;;5052658;28;20895;-88
2021/01/17 05:48:49;;;;;;;21.90;13.37;;;-1.60;99.90;;;;;;5052585;28;20444;-87
2021/01/17 05:51:28;;;;;;;25.63;13.23;;;-1.70;99.90;;;;;;5051077;28;20517;-88
2021/01/17 05:53:55;;;;;;;22.80;11.60;;;-1.70;99.90;;;;;;5052585;28;20456;-87
2021/01/17 05:56:22;;;;;;;20.57;12.20;;;;;;;;;;5055806;28;20874;-88
2021/01/17 05:58:48;;;;;;;19.23;12.00;;;-1.60;99.90;;;;;;5055687;28;20473;-88
2021/01/17 06:01:20;;;;;;;28.13;14.10;;;-1.50;99.90;;;;;;5055955;28;20450;-88
2021/01/17 06:03:51;;;;;;;20.33;11.80;;;-1.70;99.90;;;;;;5055635;28;20503;-88
2021/01/17 06:06:26;;;;;;;25.50;11.93;;;-1.60;99.90;;;;;;5054556;28;20454;-88
2021/01/17 06:08:54;;;;;;;24.93;13.53;;;-1.50;99.90;;;;;;5055632;28;20450;-87
2021/01/17 06:11:25;;;;;;;22.93;13.43;;;-1.70;99.90;;;;;;5055375;28;20480;-87
2021/01/17 06:13:56;;;;;;;22.67;12.73;;;-1.50;99.90;;;;;;5055193;28;20457;-87
2021/01/17 06:16:25;;;;;;;18.77;10.73;;;-1.40;99.90;;;;;;5055513;28;20448;-89
2021/01/17 06:18:54;;;;;;;20.00;11.80;;;-1.50;99.90;;;;;;5055387;28;20456;-86
2021/01/17 06:21:21;;;;;;;20.33;12.00;;;-1.40;99.90;;;;;;5053835;28;20436;-87
2021/01/17 06:23:55;;;;;;;25.33;12.60;;;-1.40;99.90;;;;;;5054950;28;20550;-88
2021/01/17 06:26:25;;;;;;;25.60;12.70;;;-1.40;99.90;;;;;;5055268;28;20443;-87
2021/01/17 06:28:52;;;;;;;21.13;11.83;;;-1.60;99.90;;;;;;5056261;28;20471;-88
2021/01/17 06:31:26;;;;;;;22.93;12.20;;;-1.20;99.90;;;;;;5058678;28;20461;-87
2021/01/17 06:34:12;;;;;;;24.97;13.00;;;-1.50;99.90;;;;;;5071718;28;20461;-89
2021/01/17 06:36:40;;;;;;;19.97;10.57;;;-1.30;99.90;;;;;;5066520;28;20830;-86
2021/01/17 06:39:20;;;;;;;19.60;11.13;;;-1.30;99.90;;;;;;5055025;28;20464;-87
2021/01/17 06:41:49;;;;;;;22.57;13.00;;;-0.80;99.90;;;;;;5054655;28;20445;-87
2021/01/17 06:44:15;;;;;;;25.20;13.00;;;-1.40;99.90;;;;;;5055265;28;20452;-87
2021/01/17 06:46:44;;;;;;;29.57;13.33;;;-1.50;99.90;;;;;;5054703;28;20449;-88
2021/01/17 06:49:22;;;;;;;20.83;12.60;;;-1.30;99.90;;;;;;5065805;28;20448;-87
2021/01/17 06:51:50;;;;;;;24.03;11.80;;;-1.40;99.90;;;;;;5073757;28;20501;-88
2021/01/17 06:54:20;;;;;;;23.50;13.70;;;-1.40;99.90;;;;;;5075055;28;20448;-90
2021/01/17 06:56:49;;;;;;;27.37;14.83;;;-1.30;99.90;;;;;;5075070;28;20511;-89
2021/01/17 06:59:29;;;;;;;24.10;12.70;;;-1.30;99.90;;;;;;5075460;28;20448;-88
2021/01/17 07:02:23;;;;;;;21.63;12.83;;;-1.40;99.90;;;;;;5077092;28;20948;-88
2021/01/17 07:05:15;;;;;;;23.83;12.17;;;-1.70;99.90;;;;;;5074830;28;20444;-88
2021/01/17 07:08:19;;;;;;;24.07;14.10;;;-1.30;99.90;;;;;;5074083;28;20448;-90
2021/01/17 07:10:50;;;;;;;26.67;13.20;;;-1.30;99.90;;;;;;5080312;28;20450;-89
2021/01/17 07:13:21;;;;;;;27.57;13.63;;;-1.30;99.90;;;;;;5080054;28;20936;-87
2021/01/17 07:15:50;;;;;;;23.60;13.17;;;-1.60;99.90;;;;;;5074927;28;20511;-88
2021/01/17 07:18:17;;;;;;;25.73;13.90;;;-1.50;99.90;;;;;;5072993;28;20514;-89
2021/01/17 07:20:46;;;;;;;24.60;13.50;;;-1.70;99.90;;;;;;5068415;28;20515;-89
2021/01/17 07:23:14;;;;;;;23.27;12.87;;;-1.60;99.90;;;;;;5062652;28;20496;-88
2021/01/17 07:25:42;;;;;;;24.87;13.67;;;-1.40;99.90;;;;;;5063800;28;20468;-87
2021/01/17 07:28:11;;;;;;;30.57;14.63;;;-1.40;99.90;;;;;;5062662;28;20460;-86
2021/01/17 07:30:51;;;;;;;25.80;14.57;;;-1.60;99.90;;;;;;5062322;28;20525;-86
2021/01/17 07:33:23;;;;;;;23.90;13.70;;;-1.50;99.90;;;;;;5061269;28;20445;-87
2021/01/17 07:35:56;;;;;;;21.80;14.03;;;-1.50;99.90;;;;;;5057793;28;20595;-87
2021/01/17 07:38:25;;;;;;;27.60;14.90;;;-1.20;99.90;;;;;;5064744;28;20452;-88
2021/01/17 07:40:55;;;;;;;25.50;16.33;;;-1.30;99.90;;;;;;5073499;28;20442;-87
2021/01/17 07:43:26;;;;;;;26.33;14.47;;;-1.20;99.90;;;;;;5055206;28;20492;-87
2021/01/17 07:45:54;;;;;;;24.53;14.00;;;-1.20;99.90;;;;;;5058813;28;20443;-87
2021/01/17 07:48:21;;;;;;;31.00;16.37;;;-1.40;99.90;;;;;;5054753;28;20449;-92
2021/01/17 07:50:49;;;;;;;22.00;12.97;;;-1.00;99.90;;;;;;5053318;28;20445;-89
2021/01/17 07:53:45;;;;;;;28.20;15.87;;;-1.20;99.90;;;;;;5050663;28;20483;-91
2021/01/17 07:56:13;;;;;;;24.17;13.80;;;-1.10;99.90;;;;;;5053612;28;20501;-90
2021/01/17 07:58:43;;;;;;;32.07;16.13;;;-1.30;99.90;;;;;;5053395;28;20828;-89
2021/01/17 08:01:46;;;;;;;30.30;16.43;;;-0.90;99.90;;;;;;5053384;28;20468;-88
2021/01/17 08:04:26;;;;;;;25.83;14.17;;;-1.30;99.90;;;;;;5052906;28;20493;-88
2021/01/17 08:07:07;;;;;;;23.97;15.17;;;-1.10;99.90;;;;;;5051984;28;20445;-88
2021/01/17 08:09:50;;;;;;;23.70;14.17;;;;;;;;;;5053543;28;20454;-89
2021/01/17 08:12:36;;;;;;;32.83;16.27;;;-0.70;99.90;;;;;;5055232;28;20464;-93
2021/01/17 08:15:21;;;;;;;30.37;16.10;;;-0.10;99.90;;;;;;5063547;28;20807;-86
2021/01/17 08:17:48;;;;;;;23.07;14.67;;;-0.90;99.90;;;;;;5053740;28;20815;-87
2021/01/17 08:20:24;;;;;;;26.10;15.53;;;-0.60;99.90;;;;;;5053512;28;20444;-88
2021/01/17 08:23:02;;;;;;;29.33;15.00;;;-0.50;99.90;;;;;;5051710;28;21010;-87
2021/01/17 08:25:57;;;;;;;27.17;15.97;;;-0.50;99.90;;;;;;5053025;28;20496;-87
2021/01/17 08:28:41;;;;;;;30.30;14.97;;;-0.70;99.90;;;;;;5056397;28;20509;-87
2021/01/17 08:31:35;;;;;;;31.70;14.27;;;-0.30;99.90;;;;;;5072635;28;20506;-87
2021/01/17 08:34:07;;;;;;;24.97;14.50;;;-0.70;99.90;;;;;;5058249;28;20985;-88
2021/01/17 08:36:34;;;;;;;22.90;13.80;;;;;;;;;;5051327;28;20450;-91
2021/01/17 08:39:00;;;;;;;30.87;15.90;;;;;;;;;;5052887;28;20441;-87
2021/01/17 08:41:28;;;;;;;21.10;13.00;;;-0.70;99.90;;;;;;5063897;28;20520;-87
2021/01/17 08:43:55;;;;;;;25.23;15.70;;;-0.40;99.90;;;;;;5072595;28;20496;-87
2021/01/17 08:46:34;;;;;;;25.63;14.10;;;-0.70;99.90;;;;;;5056923;28;21013;-87
2021/01/17 08:49:01;;;;;;;21.60;14.47;;;-0.40;99.90;;;;;;5052310;28;20493;-87
2021/01/17 08:51:29;;;;;;;29.00;16.13;;;-1.40;99.90;;;;;;5051510;28;20545;-85
2021/01/17 08:53:56;;;;;;;26.03;15.10;;;0.00;99.90;;;;;;5053197;28;20449;-89
2021/01/17 08:56:24;;;;;;;26.30;14.13;;;-0.50;99.90;;;;;;5052662;28;20825;-88
2021/01/17 08:58:55;;;;;;;25.67;14.10;;;-0.30;99.90;;;;;;5052785;28;20445;-87
2021/01/17 09:01:23;;;;;;;23.77;14.90;;;0.00;99.90;;;;;;5052800;28;20450;-88
2021/01/17 09:03:55;;;;;;;25.10;13.70;;;-0.10;99.90;;;;;;5052642;28;20482;-87
2021/01/17 09:06:44;;;;;;;26.33;16.60;;;-0.10;99.90;;;;;;5051585;28;20474;-88
2021/01/17 09:09:15;;;;;;;26.97;14.73;;;0.50;99.90;;;;;;5049307;28;20937;-89
2021/01/17 09:11:41;;;;;;;29.60;15.37;;;0.00;99.90;;;;;;5050557;28;20858;-88
2021/01/17 09:14:20;;;;;;;28.67;20.90;;;0.10;99.90;;;;;;5052980;28;20454;-88
2021/01/17 09:16:49;;;;;;;20.77;12.17;;;0.10;99.90;;;;;;5052500;28;20450;-89
2021/01/17 09:19:16;;;;;;;19.77;11.63;;;;;;;;;;5052446;28;20459;-88
2021/01/17 09:21:43;;;;;;;19.30;10.97;;;0.00;99.90;;;;;;5051042;28;20572;-87
2021/01/17 09:24:13;;;;;;;17.87;10.67;;;-0.30;99.90;;;;;;5052495;28;20494;-89
2021/01/17 09:26:41;;;;;;;17.40;10.30;;;0.10;99.90;;;;;;5052521;28;20450;-87
2021/01/17 09:29:07;;;;;;;18.77;10.50;;;0.10;99.90;;;;;;5053418;28;20478;-87
2021/01/17 09:31:36;;;;;;;20.13;10.87;;;0.50;99.90;;;;;;5055914;28;20457;-86
2021/01/17 09:34:03;;;;;;;17.40;10.70;;;;;;;;;;5056143;28;20443;-89
2021/01/17 09:36:30;;;;;;;19.23;10.10;;;;;;;;;;5055221;28;20799;-88
2021/01/17 09:38:56;;;;;;;12.67;8.17;;;;;;;;;;5056225;28;20442;-89
2021/01/17 09:41:26;;;;;;;16.03;10.23;;;0.10;99.90;;;;;;5056088;28;20462;-85
2021/01/17 09:43:53;;;;;;;17.73;8.97;;;0.10;99.90;;;;;;5056151;28;20501;-85
2021/01/17 09:46:21;;;;;;;15.27;9.10;;;-0.20;99.90;;;;;;5053373;28;20451;-86
2021/01/17 09:48:59;;;;;;;15.47;10.27;;;0.10;99.90;;;;;;5055849;28;20818;-86
2021/01/17 09:51:28;;;;;;;14.47;7.00;;;0.10;99.90;;;;;;5051912;28;20449;-88
2021/01/17 09:53:56;;;;;;;15.80;8.57;;;0.10;99.90;;;;;;5058494;28;20454;-85
2021/01/17 09:56:22;;;;;;;13.40;8.67;;;0.00;99.90;;;;;;5054507;28;20497;-87
2021/01/17 09:58:49;;;;;;;17.00;9.27;;;0.30;99.90;;;;;;5053387;28;20442;-85
2021/01/17 10:01:19;;;;;;;14.43;8.60;;;0.10;99.90;;;;;;5053732;28;20443;-87
2021/01/17 10:03:47;;;;;;;16.90;10.47;;;-0.10;99.90;;;;;;5053413;28;20489;-83
2021/01/17 10:06:18;;;;;;;17.20;8.97;;;0.40;99.90;;;;;;5052093;28;20499;-85
2021/01/17 10:08:44;;;;;;;15.97;8.73;;;0.50;99.90;;;;;;5053293;28;20508;-84
2021/01/17 10:11:10;;;;;;;14.10;8.97;;;0.40;99.90;;;;;;5053092;28;20442;-83
2021/01/17 10:13:37;;;;;;;12.93;8.53;;;;;;;;;;5053465;28;20462;-84
2021/01/17 10:16:04;;;;;;;12.27;6.90;;;;;;;;;;5055257;28;20454;-82
2021/01/17 10:18:30;;;;;;;14.43;8.80;;;0.60;99.90;;;;;;5055237;28;20500;-82
2021/01/17 10:20:57;;;;;;;16.47;9.23;;;0.50;99.90;;;;;;5065428;28;20481;-83
2021/01/17 10:23:32;;;;;;;64.20;49.03;;;0.70;99.90;;;;;;5057062;28;20997;-82
2021/01/17 10:25:59;;;;;;;22.17;10.00;;;;;;;;;;5055158;28;20472;-82
2021/01/17 10:28:26;;;;;;;13.90;9.73;;;-0.20;99.90;;;;;;5055170;28;20450;-86
2021/01/17 10:30:59;;;;;;;14.27;8.00;;;0.70;99.90;;;;;;5054871;28;21068;-82
2021/01/17 10:33:28;;;;;;;14.93;8.87;;;0.80;99.90;;;;;;5054741;28;20454;-82
2021/01/17 10:35:55;;;;;;;19.87;9.73;;;;;;;;;;5053864;28;20447;-81
2021/01/17 10:38:22;;;;;;;20.20;11.50;;;;;;;;;;5050864;28;20451;-83
2021/01/17 10:40:49;;;;;;;17.70;9.93;;;0.90;99.90;;;;;;5054534;28;20466;-81
2021/01/17 10:43:24;;;;;;;14.40;9.63;;;0.80;99.90;;;;;;5054721;28;20494;-82
2021/01/17 10:46:00;;;;;;;14.90;9.83;;;0.90;99.90;;;;;;5054717;28;20457;-83
2021/01/17 10:48:27;;;;;;;17.43;9.30;;;;;;;;;;5054830;28;20442;-82
2021/01/17 10:50:56;;;;;;;21.47;10.30;;;1.20;99.90;;;;;;5053287;28;20699;-82
2021/01/17 10:53:27;;;;;;;13.70;8.57;;;1.10;99.90;;;;;;5054580;28;20447;-85
2021/01/17 10:55:56;;;;;;;17.53;9.83;;;1.10;99.90;;;;;;5064740;28;20447;-83
2021/01/17 10:58:24;;;;;;;14.80;9.37;;;1.20;99.90;;;;;;5063022;28;20443;-85
2021/01/17 11:00:52;;;;;;;12.70;8.50;;;1.50;99.90;;;;;;5064050;28;20445;-84
2021/01/17 11:03:28;;;;;;;7.53;5.40;;;1.00;99.90;;;;;;5064631;28;20481;-83
2021/01/17 11:06:08;;;;;;;12.13;6.73;;;0.90;99.90;;;;;;5063590;28;20457;-83
2021/01/17 11:08:40;;;;;;;8.97;5.70;;;1.10;99.90;;;;;;5067355;28;20438;-91
2021/01/17 11:11:07;;;;;;;11.43;6.43;;;1.30;99.90;;;;;;5062869;28;20458;-84
2021/01/17 11:13:35;;;;;;;15.40;7.30;;;0.70;99.90;;;;;;5068442;28;20933;-88
2021/01/17 11:16:02;;;;;;;13.60;7.57;;;1.60;99.90;;;;;;5074182;28;20454;-87
2021/01/17 11:18:28;;;;;;;11.57;6.77;;;1.60;99.90;;;;;;5062930;28;20447;-86
2021/01/17 11:20:56;;;;;;;11.83;6.23;;;1.50;99.90;;;;;;5064956;28;20469;-86
2021/01/17 11:23:24;;;;;;;9.80;5.87;;;1.70;99.90;;;;;;5065864;28;20493;-85
2021/01/17 11:25:58;;;;;;;12.03;6.67;;;1.70;99.90;;;;;;5063924;28;20538;-85
2021/01/17 11:28:28;;;;;;;12.23;7.20;;;1.30;99.90;;;;;;5065080;28;20511;-85
2021/01/17 11:30:55;;;;;;;11.40;6.23;;;;;;;;;;5073709;28;20481;-85
2021/01/17 11:33:27;;;;;;;13.63;9.57;;;1.40;99.90;;;;;;5067419;28;20839;-86
2021/01/17 11:36:00;;;;;;;13.83;8.30;;;1.50;99.90;;;;;;5054471;28;20443;-86
2021/01/17 11:38:42;;;;;;;9.33;6.67;;;2.00;99.90;;;;;;5059454;28;20438;-90
2021/01/17 11:41:09;;;;;;;8.87;5.30;;;1.30;99.90;;;;;;5076194;28;20461;-88
2021/01/17 11:43:37;;;;;;;11.53;5.33;;;1.30;99.90;;;;;;5061111;28;20501;-86
2021/01/17 11:46:06;;;;;;;7.27;4.67;;;1.20;99.90;;;;;;5053690;28;20455;-86
2021/01/17 11:48:33;;;;;;;5.90;5.00;;;;;;;;;;5068700;28;20460;-86
2021/01/17 11:51:00;;;;;;;8.30;5.50;;;;;;;;;;5052660;28;20480;-86
2021/01/17 11:53:26;;;;;;;10.47;7.53;;;1.20;99.90;;;;;;5052814;28;20484;-85
2021/01/17 11:55:53;;;;;;;9.50;7.00;;;1.60;99.90;;;;;;5053445;28;20857;-89
2021/01/17 11:58:19;;;;;;;14.20;8.07;;;;;;;;;;5053607;28;20454;-87
2021/01/17 12:00:52;;;;;;;13.20;7.40;;;1.50;99.90;;;;;;5056848;28;20450;-89
2021/01/17 12:03:27;;;;;;;10.37;6.07;;;1.50;99.90;;;;;;5073297;28;21006;-91
2021/01/17 12:06:01;;;;;;;10.97;7.03;;;1.60;99.90;;;;;;5072360;28;21194;-86
2021/01/17 12:08:30;;;;;;;7.87;5.30;;;;;;;;;;5073424;28;20450;-87
2021/01/17 12:10:56;;;;;;;6.57;5.17;;;1.70;99.90;;;;;;5073643;28;20450;-88
2021/01/17 12:13:25;;;;;;;11.67;6.33;;;1.10;99.90;;;;;;5073229;28;20445;-88
2021/01/17 12:15:53;;;;;;;21.63;17.97;;;1.50;99.90;;;;;;5055975;28;20446;-87
2021/01/17 12:18:19;;;;;;;42.83;33.47;;;;;;;;;;5062688;28;20462;-85
2021/01/17 12:20:45;;;;;;;13.30;7.83;;;1.60;99.90;;;;;;5057931;28;20444;-89
2021/01/17 12:23:12;;;;;;;9.10;6.53;;;1.40;99.90;;;;;;5058852;28;20485;-89
2021/01/17 12:25:39;;;;;;;9.63;6.40;;;1.20;99.90;;;;;;5063040;28;20449;-89
2021/01/17 12:28:05;;;;;;;11.10;6.47;;;1.70;99.90;;;;;;5059373;28;20455;-88
2021/01/17 12:30:32;;;;;;;10.13;5.50;;;;;;;;;;5073071;28;20476;-88
2021/01/17 12:32:59;;;;;;;9.43;6.20;;;1.50;99.90;;;;;;5073453;28;20438;-86
2021/01/17 12:35:26;;;;;;;9.73;5.97;;;;;;;;;;5071116;28;20468;-88
2021/01/17 12:37:52;;;;;;;8.37;4.87;;;1.90;99.90;;;;;;5072654;28;20468;-85
2021/01/17 12:40:18;;;;;;;8.57;5.67;;;1.60;99.90;;;;;;5073373;28;20437;-86
2021/01/17 12:42:45;;;;;;;9.20;4.97;;;1.60;99.90;;;;;;5073164;28;20908;-86
2021/01/17 12:45:13;;;;;;;7.93;5.30;;;1.50;99.90;;;;;;5073497;28;20504;-88
2021/01/17 12:47:39;;;;;;;11.90;5.53;;;;;;;;;;5072283;28;20446;-85
2021/01/17 12:50:08;;;;;;;8.70;4.60;;;1.50;99.90;;;;;;5080674;28;20449;-90
2021/01/17 12:52:35;;;;;;;12.83;5.60;;;;;;;;;;5062885;28;20454;-90
2021/01/17 12:55:01;;;;;;;8.83;5.13;;;1.20;99.90;;;;;;5064483;28;20434;-89
2021/01/17 12:57:30;;;;;;;8.77;5.80;;;1.40;99.90;;;;;;5022117;28;20442;-92
2021/01/17 12:59:58;;;;;;;7.90;5.23;;;1.50;99.90;;;;;;5058644;28;20446;-90
2021/01/17 13:02:24;;;;;;;6.70;4.47;;;;;;;;;;5072048;28;20438;-91
2021/01/17 13:04:51;;;;;;;6.90;4.33;;;;;;;;;;5062384;28;20459;-92
2021/01/17 13:07:18;;;;;;;8.70;5.20;;;1.40;99.90;;;;;;5071394;28;20456;-90
2021/01/17 13:09:45;;;;;;;10.67;6.53;;;;;;;;;;5078450;28;20454;-90
2021/01/17 13:12:11;;;;;;;10.87;6.20;;;1.20;99.90;;;;;;5057261;28;20483;-90